createdAt,value
2022-11-04T00:02:15.333Z,8.00
2022-11-04T00:04:44.271Z,8.00
2022-11-04T00:07:29.129Z,8.00
2022-11-04T00:09:57.938Z,8.00
2022-11-04T00:12:28.017Z,8.00
2022-11-04T00:15:20.076Z,8.00
2022-11-04T00:17:49.288Z,8.00
2022-11-04T00:20:36.095Z,8.00
2022-11-04T00:23:24.546Z,8.00
2022-11-04T00:26:19.112Z,8.00
2022-11-04T00:28:47.279Z,7.90
2022-11-04T00:31:37.016Z,8.00
2022-11-04T00:34:06.132Z,8.10
2022-11-04T00:36:35.517Z,8.00
2022-11-04T00:39:05.113Z,8.00
2022-11-04T00:41:34.354Z,8.00
2022-11-04T00:44:04.706Z,8.00
2022-11-04T00:46:35.350Z,8.10
2022-11-04T00:49:04.272Z,8.00
2022-11-04T00:51:33.288Z,8.00
2022-11-04T00:54:01.625Z,8.00
2022-11-04T00:56:32.298Z,7.90
2022-11-04T00:59:01.285Z,7.90
2022-11-04T01:01:30.828Z,7.90
2022-11-04T01:04:00.143Z,8.00
2022-11-04T01:06:53.022Z,8.00
2022-11-04T01:19:06.021Z,8.00
2022-11-04T01:32:44.937Z,8.00
2022-11-04T01:35:15.271Z,8.00
2022-11-04T01:37:44.313Z,8.10
2022-11-04T01:40:13.153Z,8.10
2022-11-04T01:42:43.805Z,8.10
2022-11-04T01:45:19.432Z,8.10
2022-11-04T01:48:07.674Z,8.10
2022-11-04T01:50:45.956Z,8.10
2022-11-04T01:53:23.781Z,8.10
2022-11-04T01:56:03.700Z,8.10
2022-11-04T02:01:54.979Z,8.20
2022-11-04T02:04:27.461Z,8.20
2022-11-04T02:10:10.564Z,8.30
2022-11-04T02:12:53.917Z,8.40
2022-11-04T02:15:29.708Z,8.40
2022-11-04T02:18:21.165Z,8.40
2022-11-04T02:21:21.533Z,8.40
2022-11-04T02:24:13.386Z,8.40
2022-11-04T02:27:34.144Z,8.40
2022-11-04T02:34:24.331Z,8.40
2022-11-04T02:41:03.173Z,8.40
2022-11-04T02:47:47.091Z,8.40
2022-11-04T02:50:43.246Z,8.40
2022-11-04T02:53:16.052Z,8.40
2022-11-04T02:55:49.252Z,8.40
2022-11-04T02:59:08.753Z,8.40
2022-11-04T03:01:43.143Z,8.40
2022-11-04T03:10:59.743Z,8.50
2022-11-04T03:13:35.449Z,8.50
2022-11-04T03:16:10.262Z,8.50
2022-11-04T03:22:10.168Z,8.50
2022-11-04T03:25:05.038Z,8.50
2022-11-04T03:27:42.806Z,8.50
2022-11-04T03:32:58.818Z,8.60
2022-11-04T03:35:28.389Z,8.50
2022-11-04T03:37:59.161Z,8.50
2022-11-04T03:40:28.390Z,8.50
2022-11-04T03:44:03.046Z,8.50
2022-11-04T03:47:05.630Z,8.50
2022-11-04T03:50:10.177Z,8.50
2022-11-04T03:52:38.350Z,8.60
2022-11-04T03:55:47.796Z,8.60
2022-11-04T03:58:29.780Z,8.60
2022-11-04T04:01:50.775Z,8.50
2022-11-04T04:04:29.552Z,8.50
2022-11-04T04:07:07.109Z,8.50
2022-11-04T04:09:41.363Z,8.50
2022-11-04T04:12:17.454Z,8.50
2022-11-04T04:14:50.345Z,8.50
2022-11-04T04:17:29.690Z,8.50
2022-11-04T04:20:06.486Z,8.50
2022-11-04T04:23:30.503Z,8.50
2022-11-04T04:26:23.330Z,8.60
2022-11-04T04:29:08.833Z,8.60
2022-11-04T04:31:52.504Z,8.50
2022-11-04T04:37:38.323Z,8.50
2022-11-04T04:40:30.162Z,8.50
2022-11-04T04:46:18.713Z,8.50
2022-11-04T04:48:46.913Z,8.50
2022-11-04T04:55:40.645Z,8.50
2022-11-04T04:58:50.077Z,8.50
2022-11-04T05:01:42.704Z,8.50
2022-11-04T05:04:11.406Z,8.50
2022-11-04T05:06:40.115Z,8.60
2022-11-04T05:09:08.501Z,8.60
2022-11-04T05:11:37.441Z,8.60
2022-11-04T05:14:05.650Z,8.60
2022-11-04T05:16:39.454Z,8.60
2022-11-04T05:19:10.298Z,8.60
2022-11-04T05:21:38.712Z,8.60
2022-11-04T05:24:07.268Z,8.60
2022-11-04T05:26:38.413Z,8.60
2022-11-04T05:29:07.110Z,8.60
2022-11-04T05:31:35.380Z,8.60
2022-11-04T05:34:04.487Z,8.60
2022-11-04T05:36:41.303Z,8.60
2022-11-04T05:39:19.495Z,8.60
2022-11-04T05:41:51.580Z,8.70
2022-11-04T05:44:23.234Z,8.60
2022-11-04T05:46:52.413Z,8.60
2022-11-04T05:49:24.265Z,8.60
2022-11-04T05:51:54.311Z,8.60
2022-11-04T05:54:22.647Z,8.60
2022-11-04T05:56:52.508Z,8.60
2022-11-04T05:59:20.791Z,8.60
2022-11-04T06:01:50.370Z,8.70
2022-11-04T06:04:20.432Z,8.70
2022-11-04T06:06:49.477Z,8.60
2022-11-04T06:09:20.053Z,8.70
2022-11-04T06:11:48.289Z,8.70
2022-11-04T06:14:18.824Z,8.70
2022-11-04T06:16:47.278Z,8.70
2022-11-04T06:19:16.435Z,8.70
2022-11-04T06:21:44.715Z,8.70
2022-11-04T06:24:16.427Z,8.70
2022-11-04T06:26:49.508Z,8.70
2022-11-04T06:29:17.824Z,8.70
2022-11-04T06:31:46.452Z,8.80
2022-11-04T06:34:18.182Z,8.80
2022-11-04T06:36:46.653Z,8.90
2022-11-04T06:39:15.292Z,8.90
2022-11-04T06:42:02.634Z,8.90
2022-11-04T06:44:34.395Z,8.90
2022-11-04T06:51:24.540Z,8.90
2022-11-04T06:54:18.542Z,8.90
2022-11-04T06:57:00.097Z,9.00
2022-11-04T06:59:33.812Z,9.00
2022-11-04T07:02:06.013Z,9.00
2022-11-04T07:04:34.513Z,9.10
2022-11-04T07:07:21.354Z,9.10
2022-11-04T07:09:49.492Z,9.10
2022-11-04T07:12:17.815Z,9.10
2022-11-04T07:14:48.160Z,9.10
2022-11-04T07:17:25.771Z,9.10
2022-11-04T07:19:57.716Z,9.20
2022-11-04T07:22:26.452Z,9.20
2022-11-04T07:24:59.023Z,9.30
2022-11-04T07:27:32.550Z,9.20
2022-11-04T07:30:01.438Z,9.20
2022-11-04T07:36:32.327Z,9.20
2022-11-04T07:39:02.094Z,9.20
2022-11-04T07:41:31.414Z,9.30
2022-11-04T07:44:01.436Z,9.30
2022-11-04T07:47:27.038Z,9.30
2022-11-04T07:50:11.017Z,9.30
2022-11-04T07:52:44.411Z,9.40
2022-11-04T07:55:14.297Z,9.40
2022-11-04T07:57:43.552Z,9.40
2022-11-04T08:00:16.316Z,9.40
2022-11-04T08:02:51.097Z,9.40
2022-11-04T08:05:20.818Z,9.60
2022-11-04T08:07:57.668Z,9.60
2022-11-04T08:10:26.465Z,9.70
2022-11-04T08:12:54.828Z,9.70
2022-11-04T08:15:23.548Z,9.80
2022-11-04T08:17:54.474Z,9.80
2022-11-04T08:20:30.201Z,9.80
2022-11-04T08:22:59.325Z,9.80
2022-11-04T08:25:27.581Z,9.80
2022-11-04T08:28:02.488Z,9.80
2022-11-04T08:30:30.637Z,9.80
2022-11-04T08:32:59.669Z,9.80
2022-11-04T08:35:29.154Z,9.80
2022-11-04T08:38:22.112Z,9.80
2022-11-04T08:40:57.057Z,9.80
2022-11-04T08:43:28.030Z,9.80
2022-11-04T08:45:57.144Z,9.80
2022-11-04T08:48:25.695Z,9.80
2022-11-04T08:51:21.114Z,9.80
2022-11-04T08:57:18.114Z,9.90
2022-11-04T08:59:50.389Z,9.90
2022-11-04T09:02:44.254Z,9.90
2022-11-04T09:05:16.017Z,10.00
2022-11-04T09:07:46.347Z,10.00
2022-11-04T09:10:14.934Z,10.00
2022-11-04T09:12:44.125Z,10.10
2022-11-04T09:15:13.367Z,10.10
2022-11-04T09:17:44.336Z,10.10
2022-11-04T09:20:18.251Z,10.10
2022-11-04T09:23:16.211Z,10.10
2022-11-04T09:25:45.514Z,10.20
2022-11-04T09:28:19.972Z,10.20
2022-11-04T09:30:51.917Z,10.10
2022-11-04T09:33:20.101Z,10.20
2022-11-04T09:35:56.159Z,10.10
2022-11-04T09:38:31.735Z,10.20
2022-11-04T09:41:01.511Z,10.20
2022-11-04T09:43:47.556Z,10.20
2022-11-04T09:46:20.642Z,10.20
2022-11-04T09:48:57.011Z,10.20
2022-11-04T09:51:54.865Z,10.20
2022-11-04T09:55:07.674Z,10.20
2022-11-04T09:57:41.746Z,10.30
2022-11-04T10:00:16.274Z,10.30
2022-11-04T10:02:57.562Z,10.30
2022-11-04T10:05:41.047Z,10.30
2022-11-04T10:08:46.635Z,10.40
2022-11-04T10:11:24.819Z,10.40
2022-11-04T10:14:25.466Z,10.50
2022-11-04T10:17:10.696Z,10.60
2022-11-04T10:19:52.222Z,10.60
2022-11-04T10:22:30.519Z,10.70
2022-11-04T10:25:07.439Z,10.80
2022-11-04T10:27:39.720Z,10.80
2022-11-04T10:30:17.566Z,10.90
2022-11-04T10:33:18.967Z,10.90
2022-11-04T10:36:19.232Z,10.90
2022-11-04T10:39:41.007Z,11.00
2022-11-04T10:42:17.622Z,11.00
2022-11-04T10:44:49.420Z,11.10
2022-11-04T10:47:33.543Z,11.10
2022-11-04T10:50:30.780Z,11.30
2022-11-04T10:53:15.383Z,11.40
2022-11-04T10:55:56.483Z,11.60
2022-11-04T10:58:27.548Z,11.70
2022-11-04T11:00:57.941Z,11.90
2022-11-04T11:03:30.548Z,12.00
2022-11-04T11:06:25.152Z,12.10
2022-11-04T11:08:59.903Z,12.30
2022-11-04T11:11:50.556Z,12.50
2022-11-04T11:14:21.689Z,12.70
2022-11-04T11:16:53.145Z,12.70
2022-11-04T11:19:25.109Z,12.70
2022-11-04T11:21:56.637Z,12.70
2022-11-04T11:24:33.616Z,12.80
2022-11-04T11:27:04.105Z,12.80
2022-11-04T11:29:40.456Z,12.80
2022-11-04T11:32:36.544Z,12.80
2022-11-04T11:35:10.735Z,12.90
2022-11-04T11:37:43.997Z,12.90
2022-11-04T11:40:34.221Z,13.00
2022-11-04T11:43:03.411Z,13.10
2022-11-04T11:45:32.929Z,13.30
2022-11-04T11:48:03.392Z,13.40
2022-11-04T11:54:36.976Z,13.60
2022-11-04T11:57:27.587Z,13.70
2022-11-04T12:03:02.418Z,13.70
2022-11-04T12:11:47.147Z,14.00
2022-11-04T12:14:24.848Z,14.10
2022-11-04T12:17:03.839Z,14.30
2022-11-04T12:20:04.071Z,14.20
2022-11-04T12:22:41.043Z,14.40
2022-11-04T12:25:24.057Z,14.60
2022-11-04T12:31:21.360Z,14.70
2022-11-04T12:34:05.050Z,14.70
2022-11-04T12:36:50.034Z,14.60
2022-11-04T12:39:37.157Z,14.50
2022-11-04T12:42:24.569Z,14.50
2022-11-04T12:49:12.477Z,14.40
2022-11-04T12:51:54.012Z,14.20
2022-11-04T12:54:43.863Z,14.20
2022-11-04T12:57:26.935Z,14.20
2022-11-04T13:00:06.363Z,14.20
2022-11-04T13:02:44.915Z,14.00
2022-11-04T13:05:30.407Z,13.90
2022-11-04T13:08:08.660Z,13.90
2022-11-04T13:10:54.662Z,13.80
2022-11-04T13:13:33.959Z,13.70
2022-11-04T13:16:08.661Z,13.60
2022-11-04T13:18:41.891Z,13.50
2022-11-04T13:21:17.462Z,13.50
2022-11-04T13:23:57.255Z,13.50
2022-11-04T13:26:28.087Z,13.40
2022-11-04T13:29:07.511Z,13.30
2022-11-04T13:32:02.419Z,13.40
2022-11-04T13:34:42.301Z,13.30
2022-11-04T13:37:20.754Z,13.30
2022-11-04T13:39:56.924Z,13.30
2022-11-04T13:42:41.703Z,13.20
2022-11-04T13:49:26.101Z,13.10
2022-11-04T13:52:03.323Z,13.00
2022-11-04T13:54:34.522Z,13.00
2022-11-04T13:57:22.189Z,13.00
2022-11-04T14:00:10.683Z,12.90
2022-11-04T14:02:45.191Z,12.90
2022-11-04T14:05:55.246Z,12.80
2022-11-04T14:08:24.592Z,12.80
2022-11-04T14:11:03.706Z,12.80
2022-11-04T14:14:14.959Z,12.70
2022-11-04T14:16:57.281Z,12.60
2022-11-04T14:20:02.367Z,12.60
2022-11-04T14:22:37.618Z,12.60
2022-11-04T14:25:31.006Z,12.50
2022-11-04T14:28:04.550Z,12.50
2022-11-04T14:30:44.231Z,12.50
2022-11-04T14:33:37.520Z,12.50
2022-11-04T14:36:38.557Z,12.40
2022-11-04T14:39:39.247Z,12.30
2022-11-04T14:42:09.988Z,12.30
2022-11-04T14:44:49.324Z,12.20
2022-11-04T14:47:33.214Z,12.20
2022-11-04T14:50:11.288Z,12.20
2022-11-04T14:53:32.077Z,12.20
2022-11-04T14:56:23.162Z,12.20
2022-11-04T14:59:03.900Z,12.10
2022-11-04T15:01:35.873Z,12.00
2022-11-04T15:04:12.739Z,11.90
2022-11-04T15:10:24.739Z,11.80
2022-11-04T15:17:27.900Z,11.80
2022-11-04T15:20:01.652Z,11.80
2022-11-04T15:22:31.881Z,11.80
2022-11-04T15:25:06.695Z,11.70
2022-11-04T15:27:37.348Z,11.70
2022-11-04T15:30:19.321Z,11.70
2022-11-04T15:33:01.909Z,11.70
2022-11-04T15:35:32.725Z,11.80
2022-11-04T15:38:03.875Z,11.70
2022-11-04T15:40:36.011Z,11.70
2022-11-04T15:43:05.328Z,11.70
2022-11-04T15:45:39.180Z,11.70
2022-11-04T15:48:35.356Z,11.70
2022-11-04T15:51:13.136Z,11.60
2022-11-04T15:53:59.891Z,11.60
2022-11-04T15:56:30.493Z,11.60
2022-11-04T15:59:00.556Z,11.60
2022-11-04T16:01:29.419Z,11.60
2022-11-04T16:04:01.075Z,11.60
2022-11-04T16:06:37.464Z,11.60
2022-11-04T16:09:25.304Z,11.60
2022-11-04T16:12:16.159Z,11.60
2022-11-04T16:14:52.274Z,11.60
2022-11-04T16:17:21.343Z,11.60
2022-11-04T16:19:56.549Z,11.60
2022-11-04T16:22:31.839Z,11.60
2022-11-04T16:25:04.540Z,11.60
2022-11-04T16:27:36.781Z,11.60
2022-11-04T16:30:13.282Z,11.60
2022-11-04T16:32:43.883Z,11.60
2022-11-04T16:35:43.118Z,11.60
2022-11-04T16:38:11.837Z,11.50
2022-11-04T16:41:06.307Z,11.50
2022-11-04T16:46:53.989Z,11.50
2022-11-04T16:49:30.626Z,11.60
2022-11-04T16:52:17.965Z,11.60
2022-11-04T16:55:13.326Z,11.50
2022-11-04T16:57:44.189Z,11.50
2022-11-04T17:00:21.003Z,11.50
2022-11-04T17:06:18.501Z,11.40
2022-11-04T17:08:53.281Z,11.40
2022-11-04T17:11:26.715Z,11.40
2022-11-04T17:13:56.221Z,11.40
2022-11-04T17:16:24.741Z,11.40
2022-11-04T17:18:54.435Z,11.40
2022-11-04T17:21:24.533Z,11.40
2022-11-04T17:23:52.938Z,11.40
2022-11-04T17:26:21.805Z,11.40
2022-11-04T17:28:51.168Z,11.30
2022-11-04T17:31:21.957Z,11.30
2022-11-04T17:33:50.264Z,11.30
2022-11-04T17:36:20.508Z,11.40
2022-11-04T17:39:19.454Z,11.30
2022-11-04T17:42:06.708Z,11.30
2022-11-04T17:44:35.079Z,11.40
2022-11-04T17:47:05.435Z,11.40
2022-11-04T17:49:39.090Z,11.40
2022-11-04T17:52:10.383Z,11.30
2022-11-04T17:54:38.717Z,11.30
2022-11-04T17:57:07.773Z,11.30
2022-11-04T17:59:37.073Z,11.30
2022-11-04T18:02:07.348Z,11.30
2022-11-04T18:04:35.862Z,11.20
2022-11-04T18:07:05.095Z,11.20
2022-11-04T18:09:36.584Z,11.20
2022-11-04T18:12:24.108Z,11.20
2022-11-04T18:14:54.794Z,11.20
2022-11-04T18:17:25.005Z,11.20
2022-11-04T18:19:53.773Z,11.20
2022-11-04T18:22:24.694Z,11.20
2022-11-04T18:24:53.474Z,11.20
2022-11-04T18:31:31.461Z,11.20
2022-11-04T18:34:02.263Z,11.20
2022-11-04T18:36:41.736Z,11.20
2022-11-04T18:39:18.414Z,11.20
2022-11-04T18:41:49.821Z,11.20
2022-11-04T18:44:20.795Z,11.20
2022-11-04T18:46:53.933Z,11.20
2022-11-04T18:49:24.701Z,11.20
2022-11-04T18:51:53.766Z,11.20
2022-11-04T18:54:23.709Z,11.10
2022-11-04T18:56:52.520Z,11.20
2022-11-04T18:59:21.309Z,11.20
2022-11-04T19:01:55.396Z,11.20
2022-11-04T19:04:39.879Z,11.30
2022-11-04T19:07:18.695Z,11.20
2022-11-04T19:09:54.665Z,11.20
2022-11-04T19:12:46.917Z,11.20
2022-11-04T19:15:19.643Z,11.20
2022-11-04T19:17:48.626Z,11.20
2022-11-04T19:20:44.069Z,11.20
2022-11-04T19:23:21.817Z,11.20
2022-11-04T19:25:51.969Z,11.20
2022-11-04T19:28:47.569Z,11.20
2022-11-04T19:31:14.314Z,11.20
2022-11-04T19:33:50.011Z,11.10
2022-11-04T19:36:22.316Z,11.10
2022-11-04T19:38:54.137Z,11.20
2022-11-04T19:41:41.749Z,11.10
2022-11-04T19:44:17.743Z,11.20
2022-11-04T19:46:50.775Z,11.10
2022-11-04T19:49:19.311Z,11.10
2022-11-04T19:51:49.164Z,11.10
2022-11-04T19:54:18.379Z,11.20
2022-11-04T19:56:50.126Z,11.10
2022-11-04T19:59:19.015Z,11.10
2022-11-04T20:01:47.445Z,11.10
2022-11-04T20:04:15.818Z,11.10
2022-11-04T20:06:44.835Z,11.10
2022-11-04T20:09:14.530Z,11.10
2022-11-04T20:11:56.933Z,11.10
2022-11-04T20:14:50.718Z,11.00
2022-11-04T20:17:25.129Z,11.00
2022-11-04T20:19:53.577Z,11.00
2022-11-04T20:22:24.764Z,11.00
2022-11-04T20:25:03.184Z,11.00
2022-11-04T20:27:33.991Z,11.00
2022-11-04T20:30:02.242Z,11.00
2022-11-04T20:32:34.287Z,11.00
2022-11-04T20:35:11.233Z,10.90
2022-11-04T20:37:39.687Z,11.00
2022-11-04T20:40:10.604Z,11.00
2022-11-04T20:42:47.784Z,11.00
2022-11-04T20:45:21.811Z,10.90
2022-11-04T20:47:50.170Z,11.00
2022-11-04T20:50:18.692Z,10.90
2022-11-04T20:52:46.964Z,10.90
2022-11-04T20:55:16.641Z,10.90
2022-11-04T20:57:55.033Z,10.90
2022-11-04T21:00:23.530Z,10.90
2022-11-04T21:02:54.717Z,10.90
2022-11-04T21:05:25.665Z,10.80
2022-11-04T21:08:08.051Z,10.80
2022-11-04T21:10:38.704Z,10.80
2022-11-04T21:13:09.592Z,10.80
2022-11-04T21:15:52.396Z,10.80
2022-11-04T21:18:24.227Z,10.80
2022-11-04T21:20:53.036Z,10.80
2022-11-04T21:23:22.493Z,10.80
2022-11-04T21:25:56.914Z,10.70
2022-11-04T21:28:26.044Z,10.80
2022-11-04T21:30:55.608Z,10.70
2022-11-04T21:33:23.788Z,10.80
2022-11-04T21:35:58.697Z,10.80
2022-11-04T21:38:27.416Z,10.80
2022-11-04T21:41:01.982Z,10.80
2022-11-04T21:43:30.809Z,10.80
2022-11-04T21:46:08.180Z,10.80
2022-11-04T21:48:39.720Z,10.70
2022-11-04T21:51:10.706Z,10.70
2022-11-04T21:53:44.432Z,10.80
2022-11-04T21:56:17.100Z,10.80
2022-11-04T21:59:18.340Z,10.80
2022-11-04T22:01:48.781Z,10.70
2022-11-04T22:04:17.213Z,10.70
2022-11-04T22:06:47.128Z,10.70
2022-11-04T22:09:15.896Z,10.70
2022-11-04T22:11:45.582Z,10.70
2022-11-04T22:14:17.719Z,10.70
2022-11-04T22:16:45.860Z,10.70
2022-11-04T22:19:14.907Z,10.70
2022-11-04T22:21:47.176Z,10.60
2022-11-04T22:24:21.387Z,10.70
2022-11-04T22:26:51.214Z,10.70
2022-11-04T22:29:20.708Z,10.60
2022-11-04T22:31:52.668Z,10.70
2022-11-04T22:34:22.523Z,10.60
2022-11-04T22:36:57.067Z,10.70
2022-11-04T22:39:42.293Z,10.70
2022-11-04T22:42:19.107Z,10.70
2022-11-04T22:44:47.902Z,10.70
2022-11-04T22:47:40.827Z,10.70
2022-11-04T22:50:16.144Z,10.70
2022-11-04T22:52:44.885Z,10.70
2022-11-04T22:55:18.814Z,10.60
2022-11-04T22:57:48.899Z,10.60
2022-11-04T23:01:06.712Z,10.70
2022-11-04T23:03:36.154Z,10.60
2022-11-04T23:06:21.012Z,10.60
2022-11-04T23:09:00.406Z,10.60
2022-11-04T23:11:48.104Z,10.60
2022-11-04T23:14:47.364Z,10.60
2022-11-04T23:17:40.182Z,10.60
2022-11-04T23:20:15.162Z,10.60
2022-11-04T23:23:01.410Z,10.60
2022-11-04T23:25:29.921Z,10.70
2022-11-04T23:28:22.870Z,10.60
2022-11-04T23:31:00.245Z,10.60
2022-11-04T23:33:42.811Z,10.60
2022-11-04T23:36:29.089Z,10.70
2022-11-04T23:39:03.227Z,10.70
2022-11-04T23:41:49.990Z,10.60
2022-11-04T23:44:32.919Z,10.60
2022-11-04T23:47:22.756Z,10.60
2022-11-04T23:50:08.909Z,10.60
2022-11-04T23:52:55.407Z,10.60
2022-11-04T23:55:42.485Z,10.60
2022-11-04T23:58:31.093Z,10.60
